createdAt,value
2018-04-10T00:01:59.496Z,99621.65
2018-04-10T00:04:32.047Z,99617.56
2018-04-10T00:07:04.668Z,99623.95
2018-04-10T00:09:37.317Z,99623.05
2018-04-10T00:12:09.916Z,99620.23
2018-04-10T00:14:42.418Z,99618.74
2018-04-10T00:17:14.954Z,99619.23
2018-04-10T00:19:47.467Z,99616.20
2018-04-10T00:22:19.990Z,99612.66
2018-04-10T00:24:52.542Z,99611.75
2018-04-10T00:27:25.118Z,99609.62
2018-04-10T00:29:57.609Z,99609.22
2018-04-10T00:32:30.215Z,99610.10
2018-04-10T00:35:02.714Z,99605.80
2018-04-10T00:37:35.272Z,99605.44
2018-04-10T00:40:07.858Z,99606.17
2018-04-10T00:42:40.440Z,99610.94
2018-04-10T00:45:13.031Z,99603.85
2018-04-10T00:47:45.539Z,99604.98
2018-04-10T00:50:18.039Z,99605.95
2018-04-10T00:52:50.526Z,99601.23
2018-04-10T00:55:23.047Z,99598.84
2018-04-10T00:57:55.654Z,99606.24
2018-04-10T01:00:28.178Z,99603.07
2018-04-10T01:03:00.669Z,99610.02
2018-04-10T01:05:33.182Z,99601.53
2018-04-10T01:08:05.673Z,99602.87
2018-04-10T01:10:38.270Z,99600.84
2018-04-10T01:13:10.765Z,99600.13
2018-04-10T01:15:43.342Z,99604.95
2018-04-10T01:18:15.837Z,99599.02
2018-04-10T01:20:48.417Z,99606.02
2018-04-10T01:23:20.997Z,99608.52
2018-04-10T01:25:53.574Z,99609.30
2018-04-10T01:28:26.070Z,99602.65
2018-04-10T01:30:58.610Z,99605.22
2018-04-10T01:33:31.125Z,99610.47
2018-04-10T01:36:03.631Z,99608.19
2018-04-10T01:38:36.132Z,99606.16
2018-04-10T01:41:08.652Z,99603.42
2018-04-10T01:43:41.145Z,99609.42
2018-04-10T01:46:13.660Z,99605.20
2018-04-10T01:48:46.145Z,99604.14
2018-04-10T01:51:18.727Z,99608.12
2018-04-10T01:53:51.218Z,99609.16
2018-04-10T01:56:23.739Z,99605.47
2018-04-10T01:58:56.225Z,99615.05
2018-04-10T02:01:28.766Z,99608.50
2018-04-10T02:04:01.356Z,99608.67
2018-04-10T02:06:33.877Z,99600.08
2018-04-10T02:09:06.377Z,99608.77
2018-04-10T02:11:39.005Z,99608.70
2018-04-10T02:14:11.494Z,99607.25
2018-04-10T02:16:44.006Z,99609.78
2018-04-10T02:19:16.497Z,99605.88
2018-04-10T02:21:49.016Z,99607.55
2018-04-10T02:24:21.502Z,99611.47
2018-04-10T02:26:54.006Z,99607.30
2018-04-10T02:29:26.501Z,99612.11
2018-04-10T02:31:59.020Z,99613.56
2018-04-10T02:34:31.566Z,99610.55
2018-04-10T02:37:04.082Z,99609.42
2018-04-10T02:39:36.576Z,99611.59
2018-04-10T02:42:09.106Z,99609.52
2018-04-10T02:44:41.698Z,99611.80
2018-04-10T02:47:14.215Z,99611.34
2018-04-10T02:49:46.706Z,99607.78
2018-04-10T02:52:19.237Z,99605.25
2018-04-10T02:54:51.734Z,99603.30
2018-04-10T02:57:24.259Z,99602.34
2018-04-10T02:59:56.752Z,99610.92
2018-04-10T03:02:29.283Z,99603.19
2018-04-10T03:05:01.781Z,99605.95
2018-04-10T03:07:34.296Z,99603.85
2018-04-10T03:10:06.793Z,99604.41
2018-04-10T03:12:39.310Z,99601.08
2018-04-10T03:15:11.796Z,99605.76
2018-04-10T03:17:44.377Z,99600.30
2018-04-10T03:20:16.963Z,99610.99
2018-04-10T03:22:49.550Z,99600.88
2018-04-10T03:25:22.126Z,99602.87
2018-04-10T03:27:54.641Z,99595.57
2018-04-10T03:30:27.139Z,99592.86
2018-04-10T03:32:59.683Z,99605.95
2018-04-10T03:35:32.277Z,99605.39
2018-04-10T03:38:04.795Z,99605.14
2018-04-10T03:40:37.292Z,99610.02
2018-04-10T03:43:09.832Z,99607.70
2018-04-10T03:45:42.370Z,99611.77
2018-04-10T03:48:14.996Z,99614.23
2018-04-10T03:50:47.482Z,99618.86
2018-04-10T03:53:20.062Z,99611.05
2018-04-10T03:55:52.646Z,99602.56
2018-04-10T03:58:25.154Z,99612.06
2018-04-10T04:00:57.651Z,99602.63
2018-04-10T04:03:30.201Z,99609.62
2018-04-10T04:06:02.781Z,99607.09
2018-04-10T04:08:35.367Z,99604.06
2018-04-10T04:11:07.864Z,99610.64
2018-04-10T04:13:40.385Z,99611.05
2018-04-10T04:16:24.623Z,99615.06
2018-04-10T04:19:09.057Z,99615.66
2018-04-10T04:21:53.581Z,99621.54
2018-04-10T04:24:26.092Z,99617.52
2018-04-10T04:26:58.578Z,99618.72
2018-04-10T04:29:31.081Z,99622.67
2018-04-10T04:32:03.575Z,99628.95
2018-04-10T04:34:36.156Z,99623.64
2018-04-10T04:37:08.654Z,99625.48
2018-04-10T04:39:41.213Z,99624.72
2018-04-10T04:42:13.704Z,99626.00
2018-04-10T04:44:46.214Z,99627.87
2018-04-10T04:47:18.705Z,99632.41
2018-04-10T04:49:51.211Z,99628.88
2018-04-10T04:52:23.703Z,99635.62
2018-04-10T04:54:56.234Z,99637.04
2018-04-10T04:57:28.802Z,99638.27
2018-04-10T05:00:01.318Z,99638.41
2018-04-10T05:02:33.806Z,99642.31
2018-04-10T05:05:06.327Z,99639.64
2018-04-10T05:07:38.814Z,99648.89
2018-04-10T05:10:11.331Z,99648.88
2018-04-10T05:12:43.827Z,99651.72
2018-04-10T05:15:16.343Z,99651.93
2018-04-10T05:17:48.834Z,99658.89
2018-04-10T05:20:21.356Z,99656.59
2018-04-10T05:22:53.856Z,99660.97
2018-04-10T05:25:26.378Z,99654.75
2018-04-10T05:27:58.876Z,99655.23
2018-04-10T05:30:32.251Z,99661.20
2018-04-10T05:33:04.832Z,99655.36
2018-04-10T05:35:37.352Z,99658.78
2018-04-10T05:38:09.870Z,99657.83
2018-04-10T05:40:42.427Z,99659.58
2018-04-10T05:43:15.054Z,99665.31
2018-04-10T05:45:47.566Z,99661.27
2018-04-10T05:48:20.079Z,99661.09
2018-04-10T05:50:52.607Z,99662.23
2018-04-10T05:53:25.120Z,99660.20
2018-04-10T05:55:57.624Z,99661.53
2018-04-10T05:58:30.138Z,99660.76
2018-04-10T06:01:02.635Z,99663.28
2018-04-10T06:03:35.148Z,99659.27
2018-04-10T06:06:07.728Z,99657.18
2018-04-10T06:08:40.315Z,99655.49
2018-04-10T06:11:12.901Z,99657.76
2018-04-10T06:13:49.364Z,99654.84
2018-04-10T06:16:21.870Z,99659.75
2018-04-10T06:18:54.387Z,99660.81
2018-04-10T06:21:26.947Z,99662.70
2018-04-10T06:23:59.471Z,99671.17
2018-04-10T06:26:31.971Z,99671.48
2018-04-10T06:29:04.586Z,99667.75
2018-04-10T06:31:37.076Z,99667.83
2018-04-10T06:34:09.678Z,99666.66
2018-04-10T06:36:42.174Z,99675.09
2018-04-10T06:39:14.731Z,99672.95
2018-04-10T06:41:47.318Z,99679.63
2018-04-10T06:44:19.901Z,99681.05
2018-04-10T06:46:52.399Z,99680.30
2018-04-10T06:49:24.923Z,99682.25
2018-04-10T06:51:57.419Z,99681.16
2018-04-10T06:54:30.037Z,99682.21
2018-04-10T06:57:02.539Z,99688.52
2018-04-10T06:59:35.052Z,99679.09
2018-04-10T07:02:07.544Z,99675.05
2018-04-10T07:04:40.066Z,99691.56
2018-04-10T07:07:12.634Z,99680.66
2018-04-10T07:09:45.255Z,99674.36
2018-04-10T07:12:17.752Z,99676.86
2018-04-10T07:14:50.262Z,99674.78
2018-04-10T07:17:22.759Z,99670.48
2018-04-10T07:19:55.298Z,99656.03
2018-04-10T07:22:27.878Z,99651.05
2018-04-10T07:25:00.394Z,99651.55
2018-04-10T07:27:32.902Z,99654.88
2018-04-10T07:30:05.431Z,99652.75
2018-04-10T07:32:37.927Z,99653.95
2018-04-10T07:35:10.499Z,99651.20
2018-04-10T07:37:42.994Z,99650.66
2018-04-10T07:40:15.574Z,99647.96
2018-04-10T07:42:48.072Z,99649.05
2018-04-10T07:45:20.584Z,99660.80
2018-04-10T07:47:53.070Z,99661.50
2018-04-10T07:50:25.616Z,99656.55
2018-04-10T07:52:58.191Z,99645.34
2018-04-10T07:55:30.709Z,99656.64
2018-04-10T07:58:03.203Z,99662.10
2018-04-10T08:00:35.724Z,99663.23
2018-04-10T08:03:08.232Z,99652.33
2018-04-10T08:05:40.756Z,99653.77
2018-04-10T08:08:13.248Z,99649.60
2018-04-10T08:10:45.763Z,99661.89
2018-04-10T08:13:18.255Z,99653.73
2018-04-10T08:15:50.763Z,99654.20
2018-04-10T08:18:23.261Z,99655.29
2018-04-10T08:20:55.778Z,99666.66
2018-04-10T08:23:28.271Z,99668.18
2018-04-10T08:26:00.778Z,99667.13
2018-04-10T08:28:33.270Z,99670.52
2018-04-10T08:31:05.785Z,99669.29
2018-04-10T08:33:38.274Z,99680.50
2018-04-10T08:36:10.822Z,99671.14
2018-04-10T08:38:43.403Z,99661.14
2018-04-10T08:41:15.911Z,99660.15
2018-04-10T08:43:48.402Z,99653.43
2018-04-10T08:46:20.974Z,99657.51
2018-04-10T08:48:53.545Z,99657.08
2018-04-10T08:51:26.058Z,99664.03
2018-04-10T08:53:58.556Z,99654.88
2018-04-10T08:56:31.983Z,99665.20
2018-04-10T08:59:04.491Z,99663.28
2018-04-10T09:01:37.090Z,99660.23
2018-04-10T09:04:09.623Z,99650.00
2018-04-10T09:06:42.140Z,99660.30
2018-04-10T09:09:14.661Z,99650.75
2018-04-10T09:11:47.155Z,99653.02
2018-04-10T09:14:19.680Z,99652.75
2018-04-10T09:16:52.175Z,99652.74
2018-04-10T09:19:24.686Z,99659.04
2018-04-10T09:21:57.185Z,99653.84
2018-04-10T09:24:29.702Z,99665.66
2018-04-10T09:27:02.243Z,99677.12
2018-04-10T09:29:34.767Z,99663.84
2018-04-10T09:32:07.268Z,99668.30
2018-04-10T09:34:39.791Z,99662.24
2018-04-10T09:37:12.291Z,99667.00
2018-04-10T09:39:44.810Z,99655.34
2018-04-10T09:42:17.302Z,99653.05
2018-04-10T09:44:49.838Z,99651.55
2018-04-10T09:47:22.419Z,99641.02
2018-04-10T09:49:55.008Z,99656.28
2018-04-10T09:52:27.506Z,99651.20
2018-04-10T09:55:00.098Z,99656.44
2018-04-10T09:57:32.670Z,99646.75
2018-04-10T10:00:05.182Z,99651.59
2018-04-10T10:02:37.678Z,99656.33
2018-04-10T10:05:10.201Z,99666.94
2018-04-10T10:07:42.803Z,99649.84
2018-04-10T10:10:15.319Z,99661.73
2018-04-10T10:12:47.815Z,99651.72
2018-04-10T10:15:20.416Z,99650.58
2018-04-10T10:17:52.956Z,99649.69
2018-04-10T10:20:25.466Z,99651.48
2018-04-10T10:22:58.014Z,99657.58
2018-04-10T10:25:30.571Z,99660.39
2018-04-10T10:28:03.091Z,99652.11
2018-04-10T10:30:35.612Z,99672.37
2018-04-10T10:33:08.167Z,99656.12
2018-04-10T10:35:40.740Z,99663.34
2018-04-10T10:38:13.248Z,99653.16
2018-04-10T10:40:45.760Z,99660.65
2018-04-10T10:43:18.282Z,99657.13
2018-04-10T10:45:50.873Z,99661.00
2018-04-10T10:48:23.367Z,99656.84
2018-04-10T10:50:55.947Z,99649.95
2018-04-10T10:53:28.443Z,99654.00
2018-04-10T10:56:00.954Z,99657.88
2018-04-10T10:58:33.448Z,99658.64
2018-04-10T11:01:05.973Z,99667.30
2018-04-10T11:03:38.482Z,99655.59
2018-04-10T11:06:10.990Z,99659.45
2018-04-10T11:08:43.487Z,99648.36
2018-04-10T11:11:16.010Z,99662.08
2018-04-10T11:13:48.637Z,99653.68
2018-04-10T11:16:21.146Z,99652.58
2018-04-10T11:18:53.643Z,99655.98
2018-04-10T11:21:26.157Z,99642.79
2018-04-10T11:23:58.658Z,99648.52
2018-04-10T11:26:31.234Z,99633.86
2018-04-10T11:29:03.827Z,99642.56
2018-04-10T11:31:36.355Z,99632.58
2018-04-10T11:34:08.858Z,99642.91
2018-04-10T11:36:41.490Z,99632.78
2018-04-10T11:39:14.009Z,99633.13
2018-04-10T11:41:46.533Z,99641.09
2018-04-10T11:44:19.027Z,99653.34
2018-04-10T11:46:51.539Z,99649.73
2018-04-10T11:49:24.031Z,99643.55
2018-04-10T11:51:56.550Z,99650.65
2018-04-10T11:54:29.072Z,99645.47
2018-04-10T11:57:01.659Z,99648.14
2018-04-10T11:59:34.148Z,99643.54
2018-04-10T12:02:06.679Z,99648.27
2018-04-10T12:04:39.218Z,99658.47
2018-04-10T12:07:11.739Z,99652.84
2018-04-10T12:09:44.234Z,99657.58
2018-04-10T12:12:16.772Z,99649.44
2018-04-10T12:14:49.266Z,99658.14
2018-04-10T12:17:21.844Z,99670.18
2018-04-10T12:19:54.340Z,99667.97
2018-04-10T12:22:26.854Z,99653.51
2018-04-10T12:24:59.354Z,99658.99
2018-04-10T12:27:31.872Z,99658.05
2018-04-10T12:30:04.439Z,99650.50
2018-04-10T12:32:36.929Z,99656.28
2018-04-10T12:35:09.434Z,99648.88
2018-04-10T12:37:42.023Z,99646.34
2018-04-10T12:40:14.511Z,99639.53
2018-04-10T12:42:47.087Z,99634.16
2018-04-10T12:45:19.584Z,99640.31
2018-04-10T12:47:52.154Z,99644.28
2018-04-10T12:50:24.653Z,99641.36
2018-04-10T12:52:57.234Z,99658.44
2018-04-10T12:55:29.776Z,99634.83
2018-04-10T12:58:02.301Z,99636.45
2018-04-10T13:00:34.827Z,99639.91
2018-04-10T13:03:07.327Z,99634.41
2018-04-10T13:05:39.847Z,99638.21
2018-04-10T13:08:12.341Z,99638.38
2018-04-10T13:10:44.855Z,99641.38
2018-04-10T13:13:17.399Z,99635.65
2018-04-10T13:15:49.906Z,99644.31
2018-04-10T13:18:22.407Z,99641.61
2018-04-10T13:20:54.935Z,99645.86
2018-04-10T13:23:27.547Z,99646.19
2018-04-10T13:26:00.080Z,99644.81
2018-04-10T13:28:32.576Z,99654.38
2018-04-10T13:31:05.088Z,99649.30
2018-04-10T13:33:37.579Z,99650.83
2018-04-10T13:36:10.155Z,99652.80
2018-04-10T13:38:42.739Z,99648.34
2018-04-10T13:41:15.261Z,99647.94
2018-04-10T13:43:47.807Z,99654.04
2018-04-10T13:46:20.394Z,99653.83
2018-04-10T13:48:52.888Z,99651.09
2018-04-10T13:51:25.408Z,99657.61
2018-04-10T13:53:57.965Z,99648.77
2018-04-10T13:56:31.690Z,99649.84
2018-04-10T13:59:04.191Z,99652.68
2018-04-10T14:01:36.702Z,99653.81
2018-04-10T14:04:09.203Z,99657.47
2018-04-10T14:06:41.814Z,99659.08
2018-04-10T14:09:14.305Z,99666.17
2018-04-10T14:11:46.884Z,99656.83
2018-04-10T14:14:19.359Z,99665.18
2018-04-10T14:16:51.950Z,99661.70
2018-04-10T14:19:24.531Z,99659.57
2018-04-10T14:21:57.055Z,99661.09
2018-04-10T14:24:29.553Z,99659.70
2018-04-10T14:27:02.076Z,99642.81
2018-04-10T14:29:34.672Z,99649.75
2018-04-10T14:32:07.191Z,99657.53
2018-04-10T14:34:39.687Z,99646.61
2018-04-10T14:37:12.206Z,99656.44
2018-04-10T14:39:44.703Z,99652.36
2018-04-10T14:42:17.238Z,99678.12
2018-04-10T14:44:49.792Z,99652.45
2018-04-10T14:47:22.315Z,99661.11
2018-04-10T14:49:54.821Z,99652.06
2018-04-10T14:52:27.345Z,99654.34
2018-04-10T14:54:59.837Z,99656.17
2018-04-10T14:57:32.355Z,99662.42
2018-04-10T15:00:04.862Z,99662.12
2018-04-10T15:02:37.386Z,99654.50
2018-04-10T15:05:09.885Z,99658.60
2018-04-10T15:07:42.403Z,99659.27
2018-04-10T15:10:14.901Z,99663.58
2018-04-10T15:12:47.420Z,99666.89
2018-04-10T15:15:19.923Z,99668.81
2018-04-10T15:17:52.482Z,99659.36
2018-04-10T15:20:24.979Z,99659.47
2018-04-10T15:22:57.503Z,99667.16
2018-04-10T15:25:30.046Z,99662.91
2018-04-10T15:28:02.631Z,99662.44
2018-04-10T15:30:35.127Z,99668.17
2018-04-10T15:33:07.645Z,99669.00
2018-04-10T15:35:40.155Z,99672.77
2018-04-10T15:38:12.831Z,99666.78
2018-04-10T15:40:45.351Z,99686.75
2018-04-10T15:43:18.012Z,99680.61
2018-04-10T15:45:50.742Z,99678.12
2018-04-10T15:48:23.314Z,99677.29
2018-04-10T15:50:55.810Z,99683.94
2018-04-10T15:53:28.331Z,99681.41
2018-04-10T15:56:00.825Z,99675.09
2018-04-10T15:58:33.442Z,99682.13
2018-04-10T16:01:06.048Z,99690.83
2018-04-10T16:03:38.570Z,99696.95
2018-04-10T16:06:11.073Z,99683.84
2018-04-10T16:08:43.603Z,99690.84
2018-04-10T16:11:16.093Z,99696.67
2018-04-10T16:13:48.619Z,99700.88
2018-04-10T16:16:21.126Z,99695.42
2018-04-10T16:18:53.715Z,99702.36
2018-04-10T16:21:26.223Z,99698.47
2018-04-10T16:23:58.739Z,99700.56
2018-04-10T16:26:31.231Z,99696.77
2018-04-10T16:29:03.747Z,99695.23
2018-04-10T16:31:36.279Z,99698.69
2018-04-10T16:34:08.778Z,99699.22
2018-04-10T16:36:41.297Z,99700.73
2018-04-10T16:39:13.883Z,99692.84
2018-04-10T16:41:46.472Z,99698.73
2018-04-10T16:44:18.994Z,99701.66
2018-04-10T16:46:51.501Z,99711.08
2018-04-10T16:49:24.007Z,99707.04
2018-04-10T16:51:56.524Z,99708.55
2018-04-10T16:54:29.022Z,99715.69
2018-04-10T16:57:01.563Z,99720.17
2018-04-10T16:59:34.199Z,99724.84
2018-04-10T17:02:06.770Z,99729.41
2018-04-10T17:04:39.275Z,99727.89
2018-04-10T17:07:11.796Z,99730.12
2018-04-10T17:09:44.296Z,99730.19
2018-04-10T17:12:16.821Z,99735.70
2018-04-10T17:14:49.340Z,99741.23
2018-04-10T17:17:21.860Z,99740.04
2018-04-10T17:19:54.357Z,99744.41
2018-04-10T17:22:26.883Z,99751.16
2018-04-10T17:24:59.427Z,99756.72
2018-04-10T17:27:32.018Z,99760.61
2018-04-10T17:30:04.516Z,99760.87
2018-04-10T17:32:37.028Z,99771.55
2018-04-10T17:35:09.558Z,99767.60
2018-04-10T17:37:42.091Z,99773.77
2018-04-10T17:40:14.719Z,99777.61
2018-04-10T17:42:47.248Z,99769.05
2018-04-10T17:45:19.744Z,99778.48
2018-04-10T17:47:52.265Z,99775.77
2018-04-10T17:50:24.759Z,99779.32
2018-04-10T17:52:57.342Z,99785.34
2018-04-10T17:55:29.937Z,99795.74
2018-04-10T17:58:02.458Z,99797.30
2018-04-10T18:00:34.954Z,99801.34
2018-04-10T18:03:07.470Z,99807.89
2018-04-10T18:05:40.082Z,99818.28
2018-04-10T18:08:12.602Z,99814.16
2018-04-10T18:10:45.135Z,99825.53
2018-04-10T18:13:17.642Z,99819.64
2018-04-10T18:15:50.148Z,99823.34
2018-04-10T18:18:22.660Z,99830.64
2018-04-10T18:20:55.164Z,99834.14
2018-04-10T18:23:27.775Z,99835.89
2018-04-10T18:26:00.482Z,99846.84
2018-04-10T18:28:33.040Z,99851.81
2018-04-10T18:31:05.557Z,99847.26
2018-04-10T18:33:38.071Z,99860.55
2018-04-10T18:36:10.601Z,99859.75
2018-04-10T18:38:43.110Z,99873.23
2018-04-10T18:41:15.615Z,99866.64
2018-04-10T18:43:48.136Z,99878.05
2018-04-10T18:46:20.736Z,99886.28
2018-04-10T18:48:53.259Z,99883.02
2018-04-10T18:51:25.753Z,99882.50
2018-04-10T18:53:58.258Z,99880.73
2018-04-10T18:56:30.778Z,99895.74
2018-04-10T18:59:03.291Z,99892.16
2018-04-10T19:01:35.797Z,99888.28
2018-04-10T19:04:08.312Z,99900.20
2018-04-10T19:06:40.815Z,99908.66
2018-04-10T19:09:13.335Z,99904.17
2018-04-10T19:11:45.844Z,99923.20
2018-04-10T19:14:18.383Z,99923.47
2018-04-10T19:16:50.900Z,99920.27
2018-04-10T19:19:23.473Z,99918.73
2018-04-10T19:21:56.041Z,99924.82
2018-04-10T19:24:28.631Z,99926.64
2018-04-10T19:27:01.215Z,99919.11
2018-04-10T19:29:33.802Z,99926.77
2018-04-10T19:32:06.390Z,99922.13
2018-04-10T19:34:38.899Z,99935.70
2018-04-10T19:37:11.399Z,99934.77
2018-04-10T19:39:43.911Z,99938.01
2018-04-10T19:42:16.418Z,99937.04
2018-04-10T19:44:49.840Z,99948.73
2018-04-10T19:47:22.343Z,99950.55
2018-04-10T19:49:54.873Z,99947.34
2018-04-10T19:52:27.381Z,99939.02
2018-04-10T19:54:59.992Z,99951.61
2018-04-10T19:57:32.500Z,99944.28
2018-04-10T20:00:05.023Z,99951.83
2018-04-10T20:02:37.515Z,99959.24
2018-04-10T20:05:10.118Z,99958.47
2018-04-10T20:07:42.662Z,99956.33
2018-04-10T20:10:15.204Z,99955.77
2018-04-10T20:12:47.749Z,99965.39
2018-04-10T20:15:20.252Z,99963.48
2018-04-10T20:17:52.829Z,99962.77
2018-04-10T20:20:25.332Z,99966.84
2018-04-10T20:22:57.857Z,99972.75
2018-04-10T20:25:30.374Z,99979.36
2018-04-10T20:28:02.895Z,99978.48
2018-04-10T20:30:35.404Z,99981.20
2018-04-10T20:33:07.922Z,99984.45
2018-04-10T20:35:40.423Z,99983.97
2018-04-10T20:38:12.982Z,99986.72
2018-04-10T20:40:45.475Z,99991.10
2018-04-10T20:43:18.090Z,99994.04
2018-04-10T20:45:50.588Z,100005.41
2018-04-10T20:48:23.158Z,100011.20
2018-04-10T20:50:55.667Z,100008.70
2018-04-10T20:53:28.350Z,100005.77
2018-04-10T20:56:00.923Z,100006.47
2018-04-10T20:58:33.439Z,100021.63
2018-04-10T21:01:05.991Z,100023.22
2018-04-10T21:03:38.550Z,100025.05
2018-04-10T21:06:11.081Z,100033.66
2018-04-10T21:08:43.603Z,100034.28
2018-04-10T21:11:16.105Z,100036.68
2018-04-10T21:13:48.739Z,100034.37
2018-04-10T21:16:21.311Z,100029.22
2018-04-10T21:18:53.915Z,100034.95
2018-04-10T21:21:26.417Z,100044.27
2018-04-10T21:23:58.939Z,100044.06
2018-04-10T21:26:31.458Z,100047.61
2018-04-10T21:29:03.969Z,100047.55
2018-04-10T21:31:36.463Z,100043.33
2018-04-10T21:34:08.975Z,100045.19
2018-04-10T21:36:41.480Z,100035.17
2018-04-10T21:39:14.003Z,100041.58
2018-04-10T21:41:46.559Z,100047.84
2018-04-10T21:44:19.142Z,100048.23
2018-04-10T21:46:51.641Z,100046.80
2018-04-10T21:49:24.214Z,100049.98
2018-04-10T21:51:56.711Z,100054.12
2018-04-10T21:54:29.236Z,100053.46
2018-04-10T21:57:01.736Z,100058.25
2018-04-10T21:59:34.252Z,100064.36
2018-04-10T22:02:06.834Z,100068.17
2018-04-10T22:04:39.363Z,100073.33
2018-04-10T22:07:11.906Z,100077.02
2018-04-10T22:09:44.425Z,100077.83
2018-04-10T22:12:16.985Z,100075.21
2018-04-10T22:14:49.503Z,100075.07
2018-04-10T22:17:22.012Z,100081.80
2018-04-10T22:19:54.530Z,100077.31
2018-04-10T22:22:27.027Z,100073.75
2018-04-10T22:24:59.643Z,100077.88
2018-04-10T22:27:32.147Z,100076.30
2018-04-10T22:30:04.664Z,100078.59
2018-04-10T22:32:37.178Z,100081.92
2018-04-10T22:35:09.700Z,100085.62
2018-04-10T22:37:42.203Z,100084.91
2018-04-10T22:40:14.722Z,100081.34
2018-04-10T22:42:47.215Z,100090.40
2018-04-10T22:45:19.735Z,100090.64
2018-04-10T22:47:52.345Z,100092.73
2018-04-10T22:50:24.866Z,100087.02
2018-04-10T22:52:57.355Z,100090.40
2018-04-10T22:55:29.896Z,100099.59
2018-04-10T22:58:02.475Z,100102.83
2018-04-10T23:00:54.708Z,100102.67
2018-04-10T23:03:27.257Z,100094.75
2018-04-10T23:05:59.763Z,100092.00
2018-04-10T23:08:32.299Z,100089.06
2018-04-10T23:11:04.844Z,100088.13
2018-04-10T23:13:37.371Z,100093.48
2018-04-10T23:16:09.900Z,100098.14
2018-04-10T23:18:42.395Z,100103.31
2018-04-10T23:21:14.957Z,100105.25
2018-04-10T23:23:47.547Z,100101.45
2018-04-10T23:26:20.080Z,100102.70
2018-04-10T23:28:52.703Z,100101.97
2018-04-10T23:31:25.208Z,100109.22
2018-04-10T23:33:57.756Z,100106.05
2018-04-10T23:36:31.039Z,100103.78
2018-04-10T23:39:03.560Z,100103.84
2018-04-10T23:41:36.075Z,100097.62
2018-04-10T23:44:08.603Z,100093.56
2018-04-10T23:46:41.134Z,100098.70
2018-04-10T23:49:13.654Z,100099.67
2018-04-10T23:51:46.166Z,100096.45
2018-04-10T23:54:18.780Z,100103.05
2018-04-10T23:56:51.278Z,100100.75
2018-04-10T23:59:23.815Z,100098.73
